Time;durP1;ratioP1;P1;durP2;ratioP2;P2;SDS_P1;SDS_P2;PMS_P1;PMS_P2;Temp;Humidity;BMP_temperature;BMP_pressure;BME280_temperature;BME280_humidity;BME280_pressure;Samples;Min_cycle;Max_cycle;Signal;HPM_P1;HPM_P2
2021/11/13 00:00:59;;;;;;;108.30;43.73;;;;;;;4.20;86.19;99273.40;2221364;80;20976;-80
2021/11/13 00:03:59;;;;;;;146.10;61.47;;;;;;;4.21;86.21;99271.29;2221403;80;20998;-80
2021/11/13 00:07:00;;;;;;;134.07;46.53;;;;;;;4.22;86.34;99266.59;2221252;80;21002;-81
2021/11/13 00:10:00;;;;;;;112.57;44.67;;;;;;;4.24;86.42;99261.97;2221460;80;20976;-79
2021/11/13 00:13:01;;;;;;;114.63;44.20;;;;;;;4.24;86.37;99263.67;2221457;80;20960;-79
2021/11/13 00:16:01;;;;;;;133.53;46.00;;;;;;;4.21;86.47;99259.66;2221435;80;20981;-80
2021/11/13 00:19:02;;;;;;;109.17;43.97;;;;;;;4.22;86.52;99258.44;2221416;80;20979;-81
2021/11/13 00:22:02;;;;;;;123.77;46.83;;;;;;;4.25;86.49;99265.03;2214490;80;21039;-80
2021/11/13 00:25:03;;;;;;;124.03;45.60;;;;;;;4.26;86.45;99257.75;2211480;81;20926;-80
2021/11/13 00:28:03;;;;;;;97.73;42.20;;;;;;;4.30;86.57;99253.59;2210478;81;20977;-81
2021/11/13 00:31:04;;;;;;;102.27;43.00;;;;;;;4.31;86.39;99252.38;2210765;81;20948;-81
2021/11/13 00:34:04;;;;;;;130.53;67.07;;;;;;;4.32;86.20;99255.84;2211178;81;20999;-80
2021/11/13 00:37:05;;;;;;;100.60;43.37;;;;;;;4.32;86.16;99247.67;2210933;81;20928;-80
2021/11/13 00:40:05;;;;;;;92.27;39.97;;;;;;;4.33;86.07;99245.56;2211080;81;20996;-82
2021/11/13 00:46:08;;;;;;;82.07;35.17;;;;;;;4.30;85.82;99237.69;2188041;81;21058;-79
2021/11/13 00:49:09;;;;;;;92.43;37.93;;;;;;;4.30;85.92;99247.14;2210945;81;20933;-81
2021/11/13 00:52:09;;;;;;;84.33;38.90;;;;;;;4.28;85.78;99252.24;2211206;81;21012;-81
2021/11/13 00:55:10;;;;;;;85.40;36.47;;;;;;;4.26;85.62;99251.30;2211309;81;21348;-81
2021/11/13 00:58:10;;;;;;;74.30;33.57;;;;;;;4.26;85.73;99248.70;2210818;81;20928;-81
2021/11/13 01:01:11;;;;;;;77.47;32.07;;;;;;;4.25;85.55;99244.36;2211153;81;20932;-79
2021/11/13 01:04:11;;;;;;;82.37;37.00;;;;;;;4.23;85.58;99239.53;2211447;81;20968;-81
2021/11/13 01:07:12;;;;;;;65.37;30.33;;;;;;;4.23;85.55;99239.94;2211417;81;20945;-80
2021/11/13 01:10:12;;;;;;;81.70;35.80;;;;;;;4.25;85.68;99235.31;2211386;81;20987;-81
2021/11/13 01:13:13;;;;;;;74.93;32.30;;;;;;;4.24;85.60;99234.84;2210729;81;21376;-80
2021/11/13 01:16:13;;;;;;;83.57;37.07;;;;;;;4.20;85.73;99231.65;2211123;81;20988;-80
2021/11/13 01:19:14;;;;;;;83.10;36.53;;;;;;;4.18;85.83;99228.12;2211008;81;20956;-80
2021/11/13 01:22:14;;;;;;;83.93;35.80;;;;;;;4.19;85.81;99225.13;2217998;80;21035;-80
2021/11/13 01:25:15;;;;;;;82.13;35.07;;;;;;;4.19;85.85;99230.30;2221376;80;20956;-81
2021/11/13 01:28:15;;;;;;;83.27;36.47;;;;;;;4.16;86.07;99222.88;2221726;80;21316;-80
2021/11/13 01:31:16;;;;;;;75.27;33.43;;;;;;;4.12;86.09;99217.52;2221725;80;20932;-79
2021/11/13 01:34:16;;;;;;;80.40;35.70;;;;;;;4.09;86.21;99216.98;2221973;80;20986;-81
2021/11/13 01:37:17;;;;;;;81.07;35.17;;;;;;;4.09;86.17;99217.39;2222122;80;21064;-80
2021/11/13 01:40:17;;;;;;;92.70;36.93;;;;;;;4.14;86.24;99210.31;2221871;80;21392;-80
2021/11/13 01:43:18;;;;;;;75.23;33.97;;;;;;;4.19;86.19;99207.04;2222118;80;20987;-82
2021/11/13 01:46:19;;;;;;;95.17;37.00;;;;;;;4.20;86.17;99203.23;2221916;80;21367;-83
2021/11/13 01:49:19;;;;;;;101.00;50.63;;;;;;;4.19;86.20;99197.59;2221145;80;21372;-80
2021/11/13 01:52:20;;;;;;;86.77;37.10;;;;;;;4.16;86.14;99198.75;2221888;80;21023;-82
2021/11/13 01:55:20;;;;;;;96.30;37.67;;;;;;;4.15;86.07;99197.86;2221941;80;20960;-79
2021/11/13 01:58:21;;;;;;;83.53;35.07;;;;;;;4.12;85.95;99196.44;2221646;80;21327;-80
2021/11/13 02:01:22;;;;;;;84.37;33.37;;;;;;;4.07;86.33;99191.89;2221529;80;21079;-81
2021/11/13 02:04:23;;;;;;;78.60;36.07;;;;;;;4.02;86.29;99187.83;2221873;80;20956;-80
2021/11/13 02:07:23;;;;;;;81.33;37.13;;;;;;;3.99;86.58;99190.27;2221764;80;20936;-80
2021/11/13 02:10:25;;;;;;;82.23;34.50;;;;;;;3.97;86.54;99176.41;2221390;80;21055;-81
2021/11/13 02:13:25;;;;;;;85.50;36.33;;;;;;;3.98;86.63;99169.14;2221768;80;21378;-79
2021/11/13 02:16:26;;;;;;;83.93;37.87;;;;;;;3.98;86.65;99168.25;2221135;80;20952;-80
2021/11/13 02:19:26;;;;;;;96.77;40.57;;;;;;;4.01;86.61;99160.64;2221118;80;20967;-80
2021/11/13 02:22:27;;;;;;;93.33;37.93;;;;;;;4.07;86.63;99158.31;2213835;80;21435;-81
2021/11/13 02:25:28;;;;;;;92.03;37.33;;;;;;;4.08;86.54;99163.95;2210966;81;21350;-81
2021/11/13 02:28:28;;;;;;;93.70;38.50;;;;;;;4.11;86.50;99161.09;2211127;81;20991;-79
2021/11/13 02:31:29;;;;;;;88.73;36.77;;;;;;;4.15;86.46;99167.27;2211139;81;21038;-80
2021/11/13 02:37:32;;;;;;;92.47;39.30;;;;;;;4.17;86.36;99179.84;2188992;81;21012;-81
2021/11/13 02:40:32;;;;;;;92.93;37.80;;;;;;;4.16;86.42;99176.38;2211118;81;20924;-80
2021/11/13 02:43:33;;;;;;;94.37;38.83;;;;;;;4.19;86.44;99175.63;2211097;81;20949;-82
2021/11/13 02:46:33;;;;;;;99.13;40.73;;;;;;;4.20;86.38;99181.27;2210502;81;21652;-82
2021/11/13 02:49:34;;;;;;;101.80;38.60;;;;;;;4.25;86.34;99180.16;2210794;81;21012;-80
2021/11/13 02:52:34;;;;;;;90.13;38.20;;;;;;;4.27;86.22;99187.57;2210612;81;21023;-80
2021/11/13 02:55:35;;;;;;;88.60;38.60;;;;;;;4.27;86.21;99187.57;2210586;81;20953;-80
2021/11/13 02:58:35;;;;;;;90.10;38.13;;;;;;;4.24;86.29;99190.91;2210334;81;21012;-81
2021/11/13 03:01:36;;;;;;;93.13;38.87;;;;;;;4.26;86.36;99190.56;2210778;81;20967;-79
2021/11/13 03:04:36;;;;;;;91.77;38.37;;;;;;;4.25;86.24;99190.09;2211015;81;21331;-80
2021/11/13 03:07:37;;;;;;;85.70;36.20;;;;;;;4.22;86.44;99177.45;2210920;81;21335;-80
2021/11/13 03:10:37;;;;;;;82.70;37.03;;;;;;;4.20;86.39;99182.97;2211174;81;21019;-80
2021/11/13 03:13:38;;;;;;;85.40;36.47;;;;;;;4.17;86.28;99173.38;2211110;81;20968;-81
2021/11/13 03:16:38;;;;;;;91.63;36.20;;;;;;;4.19;86.32;99175.63;2211418;81;20917;-81
2021/11/13 03:19:39;;;;;;;85.70;36.03;;;;;;;4.20;86.30;99179.09;2211517;81;20905;-80
2021/11/13 03:22:39;;;;;;;103.27;46.53;;;;;;;4.18;86.26;99175.15;2210586;80;21418;-80
2021/11/13 03:25:40;;;;;;;93.23;38.53;;;;;;;4.14;86.06;99175.84;2211197;81;21340;-84
2021/11/13 03:28:40;;;;;;;86.17;37.07;;;;;;;4.07;86.33;99177.69;2211125;81;20929;-80
2021/11/13 03:31:42;;;;;;;84.63;36.30;;;;;;;4.03;86.32;99168.92;2211075;81;20945;-80
2021/11/13 03:34:43;;;;;;;92.97;37.80;;;;;;;4.02;86.36;99176.61;2210792;81;21047;-81
2021/11/13 03:37:46;;;;;;;87.13;37.30;;;;;;;4.01;86.51;99172.27;2211065;81;20940;-80
2021/11/13 03:40:46;;;;;;;80.33;34.87;;;;;;;4.01;86.55;99163.22;2211226;81;21000;-80
2021/11/13 03:43:47;;;;;;;81.87;34.10;;;;;;;4.02;86.61;99158.53;2210890;81;20960;-80
2021/11/13 03:46:47;;;;;;;82.80;37.23;;;;;;;4.00;86.52;99157.17;2210634;81;21391;-81
2021/11/13 03:49:48;;;;;;;72.70;31.63;;;;;;;3.96;86.59;99144.06;2210503;81;20972;-81
2021/11/13 03:52:48;;;;;;;86.77;35.10;;;;;;;3.92;86.72;99139.17;2210484;81;20983;-80
2021/11/13 03:55:49;;;;;;;81.17;34.13;;;;;;;3.92;86.78;99139.17;2210490;81;21012;-80
2021/11/13 03:58:49;;;;;;;78.90;31.97;;;;;;;3.88;87.06;99136.40;2210512;81;20972;-80
2021/11/13 04:01:50;;;;;;;82.47;34.63;;;;;;;3.83;86.73;99145.23;2210664;81;20956;-81
2021/11/13 04:04:53;;;;;;;75.80;34.43;;;;;;;3.82;86.83;99140.48;2211164;81;20937;-82
2021/11/13 04:07:54;;;;;;;73.37;32.37;;;;;;;3.86;86.76;99145.78;2211111;81;21012;-83
2021/11/13 04:10:54;;;;;;;81.10;34.13;;;;;;;3.89;86.91;99132.59;2211196;81;21090;-82
2021/11/13 04:13:55;;;;;;;74.70;31.93;;;;;;;3.89;86.75;99127.84;2209876;81;21003;-81
2021/11/13 04:16:55;;;;;;;77.47;33.53;;;;;;;3.88;86.74;99123.08;2210011;81;20948;-82
2021/11/13 04:19:56;;;;;;;87.10;35.07;;;;;;;3.87;86.86;99123.89;2209938;81;20921;-81
2021/11/13 04:22:56;;;;;;;79.87;34.43;;;;;;;3.83;86.78;99121.59;2209449;80;20988;-81
2021/11/13 04:25:57;;;;;;;81.27;35.73;;;;;;;3.82;86.97;99112.48;2209795;81;21016;-82
2021/11/13 04:28:57;;;;;;;84.33;34.57;;;;;;;3.80;86.83;99118.88;2209663;81;20960;-79
2021/11/13 04:31:58;;;;;;;85.87;34.90;;;;;;;3.83;87.08;99113.84;2209666;81;21356;-82
2021/11/13 04:38:03;;;;;;;94.80;40.23;;;;;;;3.82;87.05;99119.83;2189394;81;21007;-82
2021/11/13 04:41:04;;;;;;;78.23;34.40;;;;;;;3.84;86.92;99119.48;2210413;81;21340;-81
2021/11/13 04:44:04;;;;;;;87.03;34.50;;;;;;;4.50;91.65;99110.59;2210243;81;21000;-80
2021/11/13 04:47:05;;;;;;;79.87;34.63;;;;;;;4.47;86.84;99110.47;2210057;81;20949;-81
2021/11/13 04:50:05;;;;;;;82.80;35.13;;;;;;;4.39;86.19;99109.28;2211069;81;20999;-81
2021/11/13 04:53:06;;;;;;;81.80;32.57;;;;;;;4.32;85.98;99115.88;2211144;81;21000;-81
2021/11/13 04:56:06;;;;;;;80.00;33.80;;;;;;;4.24;85.86;99117.67;2211208;81;21403;-82
2021/11/13 04:59:07;;;;;;;78.00;34.63;;;;;;;4.13;85.75;99124.58;2210448;81;21035;-81
2021/11/13 05:02:07;;;;;;;78.83;35.73;;;;;;;4.07;85.99;99129.48;2210197;81;21020;-81
2021/11/13 05:05:08;;;;;;;77.90;33.80;;;;;;;4.06;86.15;99128.13;2210386;81;20968;-80
2021/11/13 05:08:08;;;;;;;77.07;32.70;;;;;;;4.01;86.11;99124.06;2210386;81;21311;-82
2021/11/13 05:11:09;;;;;;;72.10;32.00;;;;;;;3.95;86.06;99130.27;2209655;81;20987;-80
2021/11/13 05:14:09;;;;;;;70.13;32.40;;;;;;;3.94;86.24;99123.75;2209826;81;20929;-80
2021/11/13 05:17:10;;;;;;;81.93;30.57;;;;;;;3.93;86.26;99117.70;2188325;81;20948;-81
2021/11/13 05:20:11;;;;;;;78.53;34.07;;;;;;;3.91;86.32;99127.08;2210197;81;20984;-81
2021/11/13 05:23:11;;;;;;;81.87;33.20;;;;;;;3.90;86.40;99131.77;2216228;80;21059;-81
2021/11/13 05:26:12;;;;;;;84.07;35.83;;;;;;;3.91;86.49;99122.33;2221315;80;20999;-81
2021/11/13 05:29:12;;;;;;;97.87;32.60;;;;;;;3.93;86.57;99120.69;2221278;80;21413;-80
2021/11/13 05:32:14;;;;;;;93.70;38.20;;;;;;;3.94;86.59;99125.03;2221281;80;20956;-80
2021/11/13 05:35:14;;;;;;;80.43;33.50;;;;;;;3.90;86.53;99129.59;2221228;80;20952;-79
2021/11/13 05:38:15;;;;;;;74.57;32.93;;;;;;;3.85;86.45;99126.82;2221501;80;21320;-80
2021/11/13 05:41:16;;;;;;;75.23;32.00;;;;;;;3.84;86.66;99127.23;2221114;80;20980;-81
2021/11/13 05:44:17;;;;;;;68.70;30.03;;;;;;;3.90;86.65;99133.47;2221222;80;20948;-80
2021/11/13 05:47:17;;;;;;;66.90;29.13;;;;;;;3.91;86.47;99133.95;2221247;80;21025;-79
2021/11/13 05:50:17;;;;;;;74.03;33.33;;;;;;;3.87;86.22;99135.92;2220136;80;21004;-80
2021/11/13 05:53:18;;;;;;;76.37;32.80;;;;;;;3.81;86.21;99141.30;2220106;80;21384;-81
2021/11/13 05:56:18;;;;;;;66.87;29.97;;;;;;;3.77;86.32;99140.70;2221139;80;21375;-79
2021/11/13 05:59:19;;;;;;;71.70;33.00;;;;;;;3.74;86.29;99143.55;2221116;80;20948;-80
2021/11/13 06:02:19;;;;;;;66.30;30.90;;;;;;;3.71;86.57;99142.13;2221623;80;20948;-82
2021/11/13 06:05:20;;;;;;;70.37;28.37;;;;;;;3.78;86.71;99146.33;2221443;80;20983;-80
2021/11/13 06:08:20;;;;;;;74.87;31.77;;;;;;;3.82;86.62;99146.06;2221337;80;21011;-80
2021/11/13 06:11:21;;;;;;;75.77;32.40;;;;;;;3.82;86.37;99147.34;2220922;80;21423;-82
2021/11/13 06:14:21;;;;;;;82.57;32.47;;;;;;;3.81;86.43;99154.21;2220741;80;21043;-82
2021/11/13 06:17:22;;;;;;;70.20;31.90;;;;;;;3.78;86.54;99156.66;2220542;80;20983;-81
2021/11/13 06:20:22;;;;;;;89.33;32.03;;;;;;;3.73;86.52;99159.45;2220467;80;21003;-81
2021/11/13 06:23:23;;;;;;;71.00;31.03;;;;;;;3.78;86.76;99163.12;2213246;80;21051;-82
2021/11/13 06:26:23;;;;;;;79.33;33.07;;;;;;;3.79;86.53;99170.05;2210260;81;20969;-81
2021/11/13 06:29:24;;;;;;;85.03;30.90;;;;;;;3.80;86.54;99173.11;2210916;81;21376;-82
2021/11/13 06:32:24;;;;;;;73.23;31.27;;;;;;;3.81;86.48;99171.00;2210653;81;21015;-84
2021/11/13 06:35:25;;;;;;;70.60;30.33;;;;;;;3.83;86.43;99168.08;2210556;81;20991;-81
2021/11/13 06:38:25;;;;;;;75.87;30.50;;;;;;;3.85;86.40;99161.69;2210877;81;21069;-82
2021/11/13 06:41:29;;;;;;;78.13;30.30;;;;;;;3.91;86.34;99164.94;2210594;81;21308;-82
2021/11/13 06:44:28;;;;;;;86.70;31.47;;;;;;;3.91;86.29;99165.82;2210118;81;21047;-81
2021/11/13 06:47:28;;;;;;;67.97;29.27;;;;;;;3.93;86.03;99170.64;2210806;81;20956;-82
2021/11/13 06:50:29;;;;;;;85.47;31.83;;;;;;;3.96;86.17;99171.19;2210335;81;21411;-82
2021/11/13 06:53:29;;;;;;;68.67;30.13;;;;;;;3.91;85.95;99163.23;2210431;81;21039;-82
2021/11/13 06:56:30;;;;;;;72.90;31.40;;;;;;;3.92;86.07;99174.45;2210031;81;21003;-81
2021/11/13 06:59:31;;;;;;;76.63;30.87;;;;;;;3.92;85.97;99166.30;2210759;81;21347;-82
2021/11/13 07:02:32;;;;;;;72.17;29.43;;;;;;;3.93;86.03;99168.47;2209803;81;21015;-81
2021/11/13 07:05:32;;;;;;;62.60;29.40;;;;;;;3.90;85.86;99170.92;2210239;81;20988;-83
2021/11/13 07:08:35;;;;;;;63.73;28.70;;;;;;;3.92;86.00;99167.59;2188284;81;20984;-82
2021/11/13 07:11:35;;;;;;;78.77;30.33;;;;;;;4.02;86.03;99176.61;2210421;81;21399;-81
2021/11/13 07:14:36;;;;;;;57.40;29.33;;;;;;;4.09;85.86;99185.09;2210102;81;20988;-82
2021/11/13 07:17:37;;;;;;;59.93;28.17;;;;;;;4.12;85.39;99189.98;2210493;81;21031;-82
2021/11/13 07:20:37;;;;;;;63.10;28.50;;;;;;;4.16;85.26;99188.41;2210599;81;21300;-82
2021/11/13 07:23:38;;;;;;;58.10;26.20;;;;;;;4.17;85.09;99188.88;2217296;80;21042;-82
2021/11/13 07:26:38;;;;;;;56.47;28.47;;;;;;;4.17;84.94;99185.02;2221526;80;20936;-82
2021/11/13 07:29:57;;;;;;;62.13;27.43;;;;;;;4.22;85.05;99179.63;2221121;80;21374;-81
2021/11/13 07:32:50;;;;;;;62.07;26.57;;;;;;;4.27;84.96;99176.83;2219425;80;21393;-83
2021/11/13 07:35:51;;;;;;;57.63;27.93;;;;;;;4.33;84.91;99180.08;2221464;80;21031;-82
2021/11/13 07:38:51;;;;;;;61.50;29.13;;;;;;;4.40;84.85;99173.08;2221472;80;21008;-82
2021/11/13 07:41:52;;;;;;;56.87;27.67;;;;;;;4.47;84.68;99171.22;2221511;80;21433;-83
2021/11/13 07:44:52;;;;;;;66.87;27.60;;;;;;;4.54;84.59;99172.35;2221441;80;21396;-82
2021/11/13 07:47:53;;;;;;;63.17;27.67;;;;;;;4.55;84.05;99174.12;2220600;80;20960;-83
2021/11/13 07:50:54;;;;;;;66.37;28.90;;;;;;;4.47;83.80;99172.10;2220554;80;21027;-83
2021/11/13 07:53:57;;;;;;;70.03;29.47;;;;;;;4.41;84.07;99170.56;2220842;80;21044;-83
2021/11/13 07:56:57;;;;;;;70.43;26.77;;;;;;;4.43;84.19;99170.22;2220866;80;20985;-82
2021/11/13 07:59:58;;;;;;;71.43;30.13;;;;;;;4.45;83.99;99163.41;2220634;80;21000;-83
2021/11/13 08:02:58;;;;;;;63.87;28.03;;;;;;;4.39;83.92;99161.86;2221071;80;20979;-81
2021/11/13 08:05:59;;;;;;;57.50;28.67;;;;;;;4.42;84.02;99158.11;2220936;80;20928;-83
2021/11/13 08:08:59;;;;;;;66.93;26.37;;;;;;;4.37;83.92;99166.09;2221221;80;20967;-84
2021/11/13 08:12:00;;;;;;;62.40;28.40;;;;;;;4.33;83.97;99160.28;2220953;80;20999;-82
2021/11/13 08:15:00;;;;;;;67.07;29.13;;;;;;;4.29;83.90;99166.14;2220488;80;20959;-82
2021/11/13 08:18:01;;;;;;;53.07;26.43;;;;;;;4.23;83.95;99176.23;2221163;80;20956;-82
2021/11/13 08:21:01;;;;;;;71.73;27.93;;;;;;;4.19;84.19;99170.45;2220621;80;21022;-82
2021/11/13 08:24:03;;;;;;;59.93;28.60;;;;;;;4.23;84.33;99174.05;2220168;80;21074;-81
2021/11/13 08:27:03;;;;;;;59.33;28.77;;;;;;;4.20;84.06;99172.22;2220965;80;21245;-80
2021/11/13 08:30:04;;;;;;;73.60;29.57;;;;;;;4.18;84.28;99172.98;2221229;80;21486;-81
2021/11/13 08:33:06;;;;;;;66.83;28.87;;;;;;;4.18;84.19;99173.86;2221031;80;20995;-82
2021/11/13 08:36:07;;;;;;;53.60;26.30;;;;;;;4.18;84.25;99172.56;2221063;80;21395;-82
2021/11/13 08:39:07;;;;;;;58.17;27.57;;;;;;;4.20;84.27;99168.34;2220378;80;20972;-81
2021/11/13 08:42:14;;;;;;;64.40;27.70;;;;;;;4.22;84.24;99165.42;2221159;80;20944;-82
2021/11/13 08:45:15;;;;;;;;;;;;;;;;;;;;;
2021/11/13 08:48:15;;;;;;;56.97;27.73;;;;;;;4.26;84.32;99169.89;2220253;80;21406;-80
2021/11/13 08:51:19;;;;;;;64.27;29.23;;;;;;;4.34;84.31;99159.50;2219717;80;21407;-82
2021/11/13 08:54:19;;;;;;;59.43;29.13;;;;;;;4.39;84.01;99157.09;2219600;80;20959;-81
2021/11/13 08:57:20;;;;;;;71.60;30.73;;;;;;;4.46;84.03;99152.24;2220561;80;21015;-82
2021/11/13 09:00:20;;;;;;;61.07;30.83;;;;;;;4.55;84.19;99155.61;2220252;80;21340;-80
2021/11/13 09:03:21;;;;;;;58.07;27.50;;;;;;;4.64;84.06;99155.98;2220773;80;21374;-84
2021/11/13 09:06:21;;;;;;;54.73;28.97;;;;;;;4.75;83.73;99156.41;2220725;80;20995;-83
2021/11/13 09:12:27;;;;;;;61.57;28.97;;;;;;;4.96;83.54;99157.66;2190687;80;21012;-82
2021/11/13 09:15:27;;;;;;;56.03;28.90;;;;;;;5.07;83.29;99158.54;2220799;80;21020;-81
2021/11/13 09:18:27;;;;;;;64.33;29.97;;;;;;;5.15;82.83;99151.06;2220451;80;20996;-80
2021/11/13 09:21:29;;;;;;;50.37;26.83;;;;;;;5.20;82.63;99148.66;2221241;80;21012;-81
2021/11/13 09:24:30;;;;;;;53.37;27.03;;;;;;;5.24;82.31;99145.39;2213447;80;21427;-81
2021/11/13 09:27:30;;;;;;;59.33;28.80;;;;;;;5.33;82.09;99143.14;2211211;81;20976;-81
2021/11/13 09:30:31;;;;;;;57.20;28.63;;;;;;;5.35;82.00;99135.91;2211388;81;21343;-82
2021/11/13 09:33:32;;;;;;;54.53;27.73;;;;;;;5.33;81.87;99132.79;2210637;81;20996;-82
2021/11/13 09:36:32;;;;;;;58.30;29.17;;;;;;;5.33;81.76;99130.20;2210786;81;20964;-80
2021/11/13 09:39:33;;;;;;;57.20;26.30;;;;;;;5.32;81.65;99124.14;2211064;81;21032;-81
2021/11/13 09:42:33;;;;;;;61.53;29.87;;;;;;;5.30;81.69;99121.91;2211137;81;21019;-82
2021/11/13 09:45:34;;;;;;;59.03;31.27;;;;;;;5.32;81.83;99106.44;2210252;81;20936;-80
2021/11/13 09:48:34;;;;;;;61.97;29.53;;;;;;;5.45;81.66;99113.82;2211479;81;21353;-80
2021/11/13 09:51:35;;;;;;;56.00;28.87;;;;;;;5.48;81.50;99111.34;2210736;81;21414;-80
2021/11/13 09:54:35;;;;;;;60.00;31.17;;;;;;;5.51;80.93;99115.75;2210525;81;21007;-82
2021/11/13 09:57:37;;;;;;;63.40;30.47;;;;;;;5.45;81.28;99119.00;2210141;81;20967;-81
2021/11/13 10:00:37;;;;;;;60.33;29.60;;;;;;;5.50;81.28;99117.45;2209953;81;21011;-82
2021/11/13 10:03:38;;;;;;;58.13;28.93;;;;;;;5.55;81.29;99108.56;2210066;81;21011;-82
2021/11/13 10:06:38;;;;;;;60.57;30.67;;;;;;;5.58;81.08;99113.84;2209723;81;20941;-81
2021/11/13 10:09:39;;;;;;;58.40;29.33;;;;;;;5.58;81.04;99113.44;2209559;81;21059;-81
2021/11/13 10:12:39;;;;;;;52.20;27.10;;;;;;;5.54;80.87;99111.97;2210275;81;20972;-82
2021/11/13 10:15:40;;;;;;;53.50;25.50;;;;;;;5.53;81.08;99118.86;2210644;81;21019;-82
2021/11/13 10:18:42;;;;;;;47.67;27.00;;;;;;;5.57;80.82;99107.79;2210186;81;21356;-82
2021/11/13 10:21:43;;;;;;;60.93;29.60;;;;;;;5.56;80.88;99113.80;2210249;81;21027;-81
2021/11/13 10:24:43;;;;;;;65.23;30.53;;;;;;;5.51;80.49;99112.75;2217459;80;21078;-81
2021/11/13 10:27:44;;;;;;;62.67;30.50;;;;;;;5.38;80.63;99102.78;2220345;80;20956;-81
2021/11/13 10:30:44;;;;;;;66.47;30.70;;;;;;;5.37;81.00;99107.48;2220672;80;21011;-81
2021/11/13 10:33:45;;;;;;;52.50;29.23;;;;;;;5.38;81.17;99105.37;2220598;80;20983;-81
2021/11/13 10:36:45;;;;;;;68.67;32.83;;;;;;;5.37;80.94;99110.08;2220145;80;20971;-81
2021/11/13 10:39:46;;;;;;;59.43;30.53;;;;;;;5.31;80.96;99104.67;2219383;80;21380;-81
2021/11/13 10:42:46;;;;;;;60.70;31.57;;;;;;;5.30;81.25;99113.27;2220318;80;20964;-82
2021/11/13 10:45:47;;;;;;;69.37;31.80;;;;;;;5.32;81.31;99112.91;2220590;80;20940;-82
2021/11/13 10:48:47;;;;;;;68.33;32.40;;;;;;;5.36;81.43;99106.61;2220691;80;20987;-81
2021/11/13 10:51:48;;;;;;;64.30;32.50;;;;;;;5.45;81.50;99106.05;2221106;80;20929;-82
2021/11/13 10:54:48;;;;;;;64.83;32.97;;;;;;;5.53;81.36;99098.56;2220795;80;21019;-81
2021/11/13 11:00:51;;;;;;;61.97;30.97;;;;;;;5.62;80.83;99102.36;2190686;80;21051;-80
2021/11/13 11:03:53;;;;;;;65.97;33.23;;;;;;;5.65;80.81;99089.52;2220673;80;21223;-82
2021/11/13 11:06:53;;;;;;;65.83;31.70;;;;;;;5.73;80.75;99085.48;2219352;80;21019;-81
2021/11/13 11:09:54;;;;;;;63.60;30.53;;;;;;;5.77;80.57;99068.34;2220136;80;20963;-81
2021/11/13 11:12:54;;;;;;;52.03;27.53;;;;;;;5.80;80.28;99062.38;2220421;80;20971;-80
2021/11/13 11:15:54;;;;;;;59.03;30.70;;;;;;;5.68;79.72;99068.02;2220713;80;20980;-81
2021/11/13 11:18:55;;;;;;;66.27;31.67;;;;;;;5.58;80.18;99064.65;2220868;80;21018;-81
2021/11/13 11:21:56;;;;;;;62.33;31.00;;;;;;;5.63;80.45;99066.98;2220714;80;21382;-81
2021/11/13 11:24:56;;;;;;;58.93;30.67;;;;;;;5.69;80.52;99064.19;2212458;80;21455;-81
2021/11/13 11:27:57;;;;;;;68.53;32.97;;;;;;;5.74;80.45;99069.53;2209910;81;21028;-80
2021/11/13 11:30:58;;;;;;;61.33;31.43;;;;;;;5.78;80.28;99067.51;2209836;81;21043;-82
2021/11/13 11:33:58;;;;;;;61.67;30.93;;;;;;;5.79;80.30;99067.09;2209756;81;20992;-82
2021/11/13 11:36:59;;;;;;;62.23;32.77;;;;;;;5.82;79.98;99068.49;2209697;81;20972;-80
2021/11/13 11:39:59;;;;;;;68.80;32.47;;;;;;;5.81;80.20;99065.02;2209747;81;20972;-80
2021/11/13 11:43:00;;;;;;;65.23;32.60;;;;;;;5.85;80.30;99071.19;2209677;81;20955;-81
2021/11/13 11:46:01;;;;;;;65.77;31.57;;;;;;;5.87;80.19;99069.53;2210119;81;21031;-81
2021/11/13 11:49:02;;;;;;;64.00;31.70;;;;;;;5.85;80.10;99066.01;2210892;81;20988;-82
2021/11/13 11:52:02;;;;;;;61.73;32.83;;;;;;;5.85;79.71;99060.83;2210966;81;21408;-82
2021/11/13 11:55:03;;;;;;;55.43;30.87;;;;;;;5.78;79.79;99060.16;2210105;81;21375;-81
2021/11/13 11:58:04;;;;;;;62.70;31.60;;;;;;;5.75;79.66;99055.75;2210313;81;20937;-80
2021/11/13 12:01:04;;;;;;;58.53;31.50;;;;;;;5.67;79.64;99051.60;2209548;81;21072;-81
2021/11/13 12:04:05;;;;;;;84.47;44.07;;;;;;;5.57;79.51;99057.30;2209850;81;21671;-81
2021/11/13 12:07:07;;;;;;;54.23;29.23;;;;;;;5.56;79.78;99050.77;2210336;81;21384;-81
2021/11/13 12:10:09;;;;;;;57.40;29.30;;;;;;;5.54;79.75;99048.13;2189009;81;20957;-82
2021/11/13 12:13:11;;;;;;;50.63;27.60;;;;;;;5.53;79.76;99047.66;2210925;81;20940;-81
2021/11/13 12:16:12;;;;;;;54.50;28.53;;;;;;;5.47;79.60;99049.15;2210640;81;21000;-81
2021/11/13 12:19:15;;;;;;;57.63;28.90;;;;;;;5.36;79.68;99046.19;2210445;81;21042;-80
2021/11/13 12:22:15;;;;;;;57.90;30.50;;;;;;;5.30;80.09;99047.27;2210634;81;21003;-80
2021/11/13 12:25:15;;;;;;;67.10;31.87;;;;;;;5.35;80.38;99041.42;2210151;81;21383;-82
2021/11/13 12:28:16;;;;;;;66.83;30.53;;;;;;;5.33;80.18;99035.31;2210128;81;20983;-79
2021/11/13 12:31:16;;;;;;;57.27;31.20;;;;;;;5.27;80.35;99038.97;2210633;81;21004;-81
2021/11/13 12:34:18;;;;;;;60.80;30.50;;;;;;;5.30;80.64;99042.09;2210953;81;20968;-81
2021/11/13 12:37:18;;;;;;;60.30;30.10;;;;;;;5.30;80.55;99039.50;2210177;81;20937;-81
2021/11/13 12:40:19;;;;;;;60.83;27.77;;;;;;;5.18;80.20;99048.08;2210610;81;21243;-82
2021/11/13 12:43:19;;;;;;;59.83;30.10;;;;;;;5.09;80.52;99040.86;2210776;81;20992;-81
2021/11/13 12:46:20;;;;;;;53.77;26.57;;;;;;;5.02;80.53;99037.17;2210217;81;20996;-80
2021/11/13 12:49:23;;;;;;;54.13;28.53;;;;;;;4.97;80.59;99033.54;2210605;81;21000;-81
2021/11/13 12:52:25;;;;;;;62.27;30.55;;;;;;;4.99;80.95;99020.25;2210822;81;20968;-79
2021/11/13 12:55:25;;;;;;;57.17;29.37;;;;;;;4.99;80.92;99012.90;2210959;81;21051;-82
2021/11/13 12:58:26;;;;;;;53.47;27.93;;;;;;;5.00;81.17;99016.84;2210630;81;21011;-81
2021/11/13 13:01:26;;;;;;;61.60;32.00;;;;;;;5.01;81.13;99013.42;2210623;81;20972;-81
2021/11/13 13:04:27;;;;;;;59.40;29.43;;;;;;;5.01;81.35;99017.72;2210220;81;21359;-79
2021/11/13 13:07:27;;;;;;;58.20;30.50;;;;;;;5.05;81.38;99019.17;2209569;81;21323;-82
2021/11/13 13:10:28;;;;;;;60.47;29.50;;;;;;;5.08;81.32;99023.17;2209787;81;21018;-80
2021/11/13 13:13:28;;;;;;;56.57;30.23;;;;;;;5.14;81.36;99026.39;2209851;81;20956;-81
2021/11/13 13:16:29;;;;;;;60.50;30.93;;;;;;;5.17;81.11;99024.33;2209763;81;20982;-81
2021/11/13 13:19:29;;;;;;;63.37;31.90;;;;;;;5.12;81.08;99018.57;2209148;81;20976;-81
2021/11/13 13:22:33;;;;;;;63.00;31.20;;;;;;;5.19;81.39;99013.62;2208933;81;21368;-80
2021/11/13 13:25:33;;;;;;;63.50;31.83;;;;;;;5.24;81.20;99017.28;2209157;81;21008;-81
2021/11/13 13:28:34;;;;;;;63.93;32.17;;;;;;;5.24;81.27;99009.52;2209947;81;21686;-81
2021/11/13 13:31:34;;;;;;;67.90;32.77;;;;;;;5.20;81.14;99020.17;2210059;81;21312;-80
2021/11/13 13:34:35;;;;;;;68.10;32.70;;;;;;;5.23;81.24;99018.11;2210375;81;21352;-80
2021/11/13 13:37:35;;;;;;;66.80;33.40;;;;;;;5.24;81.27;99020.75;2210676;81;21020;-81
2021/11/13 13:40:36;;;;;;;68.40;32.60;;;;;;;5.29;81.13;99026.09;2210711;81;20964;-80
2021/11/13 13:43:37;;;;;;;67.70;34.03;;;;;;;5.30;81.25;99025.27;2210794;81;20952;-80
2021/11/13 13:46:39;;;;;;;70.73;34.20;;;;;;;5.33;81.29;99026.66;2210740;81;20940;-80
2021/11/13 13:49:40;;;;;;;70.70;34.50;;;;;;;5.29;80.99;99027.38;2210667;81;21122;-81
2021/11/13 13:52:40;;;;;;;68.70;34.40;;;;;;;5.25;81.10;99020.34;2210877;81;20987;-81
2021/11/13 13:55:41;;;;;;;64.57;33.67;;;;;;;5.21;80.94;99028.81;2210785;81;21086;-80
2021/11/13 13:58:42;;;;;;;73.00;34.53;;;;;;;5.18;81.04;99024.38;2211047;81;21355;-81
2021/11/13 14:01:43;;;;;;;76.77;36.20;;;;;;;5.15;81.08;99023.39;2210801;81;21406;-81
2021/11/13 14:04:43;;;;;;;65.67;32.47;;;;;;;5.17;81.30;99033.38;2210843;81;21032;-81
2021/11/13 14:07:44;;;;;;;64.63;32.50;;;;;;;5.18;81.07;99028.67;2211291;81;20971;-81
2021/11/13 14:10:44;;;;;;;65.53;31.93;;;;;;;5.13;81.04;99031.98;2210746;81;21439;-81
2021/11/13 14:13:45;;;;;;;63.63;32.33;;;;;;;5.08;81.00;99036.52;2210486;81;20933;-80
2021/11/13 14:16:45;;;;;;;63.67;32.33;;;;;;;5.02;81.09;99034.59;2210366;81;21039;-81